Time;durP1;ratioP1;P1;durP2;ratioP2;P2;SDS_P1;SDS_P2;PMS_P1;PMS_P2;Temp;Humidity;BMP_temperature;BMP_pressure;BME280_temperature;BME280_humidity;BME280_pressure;Samples;Min_cycle;Max_cycle;Signal;HPM_P1;HPM_P2
2022/12/10 00:00:31;;;;;;;;;5.00;5.00;;;;;19.66;57.66;100153.72;105859;1278;18429;-63
2022/12/10 00:03:15;;;;;;;;;4.00;4.00;;;;;19.67;57.62;100154.36;105861;1272;20130;-63
2022/12/10 00:05:43;;;;;;;;;4.00;4.00;;;;;19.68;57.49;100153.20;105757;1279;19265;-64
2022/12/10 00:08:10;;;;;;;;;5.00;5.00;;;;;19.68;57.37;100152.99;105834;1298;18404;-64
2022/12/10 00:10:37;;;;;;;;;7.50;5.00;;;;;19.68;57.40;100150.03;105905;1280;18570;-62
2022/12/10 00:13:05;;;;;;;;;5.00;5.00;;;;;19.67;57.49;100152.86;105898;1278;19315;-62
2022/12/10 00:15:32;;;;;;;;;7.00;7.00;;;;;19.68;57.38;100152.99;105884;1294;22337;-63
2022/12/10 00:17:59;;;;;;;;;5.00;5.00;;;;;19.66;57.42;100149.20;105240;1289;864789;-63
2022/12/10 00:20:27;;;;;;;;;5.00;5.00;;;;;19.67;57.40;100147.45;105866;1286;20500;-62
2022/12/10 00:22:54;;;;;;;;;;;;;;;19.68;57.50;100145.73;105837;1272;19550;-63
2022/12/10 00:25:22;;;;;;;;;4.00;4.00;;;;;19.66;57.27;100144.55;105824;1280;18524;-65
2022/12/10 00:27:49;;;;;;;;;5.00;4.00;;;;;19.67;57.42;100150.89;105927;1293;19268;-63
2022/12/10 00:30:16;;;;;;;;;5.00;4.00;;;;;19.67;57.42;100153.48;105886;1280;21880;-64
2022/12/10 00:32:44;;;;;;;;;4.00;4.00;;;;;19.67;57.41;100152.05;105912;1294;20031;-63
2022/12/10 00:35:11;;;;;;;;;4.00;4.00;;;;;19.66;57.25;100154.67;105876;1295;19117;-64
2022/12/10 00:37:38;;;;;;;;;4.00;4.00;;;;;19.65;57.22;100155.84;105880;1286;21512;-64
2022/12/10 00:40:06;;;;;;;;;5.00;5.00;;;;;19.66;57.29;100156.77;105911;1273;20058;-65
2022/12/10 00:42:33;;;;;;;;;5.00;5.00;;;;;19.67;57.20;100156.57;105923;1295;19395;-65
2022/12/10 00:45:00;;;;;;;;;4.00;4.00;;;;;19.66;57.19;100158.74;105857;1295;22011;-65
2022/12/10 00:47:28;;;;;;;;;6.00;5.00;;;;;19.67;57.29;100163.09;105898;1279;20314;-64
2022/12/10 00:49:55;;;;;;;;;4.00;4.00;;;;;19.67;57.20;100168.91;105836;1295;19275;-65
2022/12/10 00:52:22;;;;;;;;;4.00;2.00;;;;;19.66;57.35;100164.46;105823;1273;23301;-63
2022/12/10 00:54:50;;;;;;;;;4.00;4.00;;;;;19.65;57.30;100164.23;105803;1282;20081;-64
2022/12/10 00:57:17;;;;;;;;;4.00;4.00;;;;;19.65;57.36;100160.60;105833;1286;19309;-62
2022/12/10 00:59:44;;;;;;;;;4.00;4.00;;;;;19.65;57.11;100158.35;105799;1294;19583;-65
2022/12/10 01:02:12;;;;;;;;;5.00;5.00;;;;;19.65;57.13;100154.75;105884;1287;19965;-64
2022/12/10 01:04:39;;;;;;;;;5.00;5.00;;;;;19.65;57.17;100150.30;105910;1280;19393;-64
2022/12/10 01:07:06;;;;;;;;;5.00;5.00;;;;;19.64;57.29;100150.14;105885;1295;18575;-64
2022/12/10 01:09:33;;;;;;;;;7.00;5.00;;;;;19.64;57.22;100154.45;105899;1294;18670;-64
2022/12/10 01:12:01;;;;;;;;;4.00;4.00;;;;;19.65;57.26;100150.14;105849;1272;21802;-65
2022/12/10 01:14:28;;;;;;;;;7.50;7.00;;;;;19.64;57.31;100150.05;105846;1288;18427;-65
2022/12/10 01:16:56;;;;;;;;;5.00;5.00;;;;;19.64;57.26;100150.72;105819;1272;18532;-64
2022/12/10 01:19:23;;;;;;;;;4.50;4.00;;;;;19.64;57.17;100147.25;105854;1293;19318;-64
2022/12/10 01:21:50;;;;;;;;;5.00;5.00;;;;;19.65;57.13;100145.95;105965;1294;19656;-63
2022/12/10 01:24:18;;;;;;;;;8.00;7.00;;;;;19.64;57.23;100144.37;105879;1294;18598;-64
2022/12/10 01:26:45;;;;;;;;;5.00;5.00;;;;;19.64;57.25;100143.70;105865;1280;19292;-63
2022/12/10 01:29:12;;;;;;;;;5.00;5.00;;;;;19.63;56.96;100141.29;105848;1280;18623;-63
2022/12/10 01:31:40;;;;;;;;;5.00;5.00;;;;;19.63;57.01;100142.64;105854;1294;21558;-65
2022/12/10 01:34:07;;;;;;;;;5.00;5.00;;;;;19.64;57.16;100145.33;105892;1294;19374;-65
2022/12/10 01:36:34;;;;;;;;;7.00;5.00;;;;;19.64;57.15;100140.39;105898;1294;19602;-65
2022/12/10 01:39:01;;;;;;;;;7.00;5.00;;;;;19.65;56.89;100141.77;105860;1289;19973;-64
2022/12/10 01:41:29;;;;;;;;;4.00;4.00;;;;;19.64;57.17;100141.45;105842;1286;20065;-63
2022/12/10 01:43:56;;;;;;;;;7.00;5.00;;;;;19.64;57.26;100140.95;105840;1294;20141;-64
2022/12/10 01:46:24;;;;;;;;;5.00;5.00;;;;;19.64;56.94;100139.38;105862;1272;18519;-63
2022/12/10 01:48:51;;;;;;;;;4.00;4.00;;;;;19.62;56.96;100137.89;105915;1295;19183;-64
2022/12/10 01:51:18;;;;;;;;;4.00;4.00;;;;;19.62;56.97;100134.42;105877;1294;18766;-64
2022/12/10 01:53:46;;;;;;;;;4.00;4.00;;;;;19.63;57.06;100134.60;105898;1295;19960;-64
2022/12/10 01:56:13;;;;;;;;;7.00;7.00;;;;;19.61;56.95;100132.77;105862;1289;19589;-64
2022/12/10 01:58:40;;;;;;;;;5.00;5.00;;;;;19.62;57.06;100131.27;105872;1280;20032;-63
2022/12/10 02:01:07;;;;;;;;;7.00;7.00;;;;;19.62;57.00;100130.65;105913;1280;18542;-65
2022/12/10 02:03:35;;;;;;;;;5.00;4.00;;;;;19.62;56.92;100136.05;105900;1294;19475;-64
2022/12/10 02:06:02;;;;;;;;;4.00;4.00;;;;;19.62;56.78;100135.92;105878;1295;18400;-65
2022/12/10 02:08:30;;;;;;;;;5.00;4.00;;;;;19.62;56.86;100132.73;105884;1279;18510;-64
2022/12/10 02:10:57;;;;;;;;;4.00;4.00;;;;;19.62;56.86;100133.61;105818;1272;19260;-64
2022/12/10 02:13:24;;;;;;;;;5.00;4.00;;;;;19.61;57.03;100130.38;105805;1295;18307;-64
2022/12/10 02:15:52;;;;;;;;;4.00;4.00;;;;;19.60;56.82;100127.60;105935;1298;19737;-64
2022/12/10 02:18:19;;;;;;;;;5.00;5.00;;;;;19.61;56.74;100129.13;105846;1280;20942;-64
2022/12/10 02:20:46;;;;;;;;;5.00;4.00;;;;;19.62;56.69;100128.30;105804;1280;20062;-64
2022/12/10 02:23:14;;;;;;;;;5.00;5.00;;;;;19.62;56.94;100131.21;105868;1280;18892;-65
2022/12/10 02:25:41;;;;;;;;;5.00;5.00;;;;;19.62;56.92;100133.27;105852;1295;19234;-64
2022/12/10 02:28:08;;;;;;;;;7.00;7.00;;;;;19.61;56.89;100129.54;105850;1286;22164;-65
2022/12/10 02:30:36;;;;;;;;;5.00;5.00;;;;;19.60;56.85;100133.13;105833;1280;20130;-65
2022/12/10 02:33:03;;;;;;;;;4.50;3.00;;;;;19.61;56.78;100131.35;105838;1280;20786;-64
2022/12/10 02:35:31;;;;;;;;;5.00;5.00;;;;;19.61;56.85;100130.46;105824;1272;23814;-63
2022/12/10 02:37:58;;;;;;;;;4.50;4.00;;;;;19.60;56.89;100130.40;105741;1294;18496;-64
2022/12/10 02:40:26;;;;;;;;;5.00;4.00;;;;;19.59;56.91;100127.79;105878;1295;19289;-64
2022/12/10 02:42:53;;;;;;;;;5.00;4.00;;;;;19.59;56.71;100132.10;105909;1294;19893;-64
2022/12/10 02:45:20;;;;;;;;;8.00;7.00;;;;;19.60;56.83;100133.83;105890;1280;18513;-65
2022/12/10 02:47:48;;;;;;;;;4.00;4.00;;;;;19.59;56.93;100132.83;105890;1271;20770;-64
2022/12/10 02:50:15;;;;;;;;;5.00;5.00;;;;;19.59;56.82;100128.84;105866;1279;18480;-63
2022/12/10 02:52:42;;;;;;;;;7.00;5.00;;;;;19.59;56.78;100127.29;105869;1272;18534;-64
2022/12/10 02:55:10;;;;;;;;;8.00;7.00;;;;;19.59;56.79;100129.81;105729;1295;20662;-64
2022/12/10 02:57:37;;;;;;;;;7.00;5.00;;;;;19.58;56.57;100129.73;105869;1295;20850;-62
2022/12/10 03:00:05;;;;;;;;;7.00;5.00;;;;;19.58;56.77;100128.58;105839;1286;22740;-65
2022/12/10 03:02:32;;;;;;;;;6.00;5.00;;;;;19.58;56.83;100126.95;105867;1289;19331;-63
2022/12/10 03:05:00;;;;;;;;;6.00;5.00;;;;;19.59;56.62;100126.54;105844;1286;21233;-64
2022/12/10 03:07:27;;;;;;;;;7.00;7.00;;;;;19.57;56.80;100125.25;105828;1293;23619;-63
2022/12/10 03:09:54;;;;;;;;;4.00;4.00;;;;;19.57;56.68;100123.30;105915;1276;20942;-64
2022/12/10 03:12:22;;;;;;;;;7.00;5.00;;;;;19.56;56.93;100122.11;105879;1279;23416;-64
2022/12/10 03:14:49;;;;;;;;;7.00;5.00;;;;;19.57;56.70;100122.42;105872;1276;18476;-63
2022/12/10 03:17:16;;;;;;;;;7.00;7.00;;;;;19.57;56.63;100124.88;105877;1288;19270;-64
2022/12/10 03:19:44;;;;;;;;;5.00;5.00;;;;;19.57;56.67;100122.36;105853;1280;18422;-64
2022/12/10 03:22:11;;;;;;;;;4.00;4.00;;;;;19.57;56.63;100123.30;105863;1295;18606;-63
2022/12/10 03:24:38;;;;;;;;;4.00;4.00;;;;;19.57;56.72;100129.08;105896;1273;20780;-64
2022/12/10 03:27:06;;;;;;;;;4.00;4.00;;;;;19.57;56.69;100133.80;105841;1279;22058;-64
2022/12/10 03:29:33;;;;;;;;;7.00;5.00;;;;;19.57;56.68;100131.09;105836;1280;19935;-64
2022/12/10 03:32:00;;;;;;;;;5.00;4.00;;;;;19.57;56.73;100138.90;105846;1280;20753;-64
2022/12/10 03:34:28;;;;;;;;;9.00;5.00;;;;;19.57;56.69;100139.00;105735;1294;20865;-64
2022/12/10 03:36:55;;;;;;;;;4.00;4.00;;;;;19.58;56.57;100137.88;105896;1273;18602;-64
2022/12/10 03:39:22;;;;;;;;;4.00;4.00;;;;;19.58;56.63;100135.70;105836;1272;22220;-64
2022/12/10 03:41:49;;;;;;;;;4.00;2.00;;;;;19.56;56.65;100133.70;105852;1272;18384;-64
2022/12/10 03:44:17;;;;;;;;;4.50;4.50;;;;;19.56;56.44;100140.06;105859;1295;19437;-63
2022/12/10 03:46:44;;;;;;;;;4.50;4.50;;;;;19.57;56.50;100138.33;105877;1294;19276;-62
2022/12/10 03:49:12;;;;;;;;;4.00;4.00;;;;;19.57;56.55;100140.67;105861;1295;19830;-64
2022/12/10 03:51:39;;;;;;;;;4.00;4.00;;;;;19.57;56.54;100139.82;105890;1298;18480;-64
2022/12/10 03:54:07;;;;;;;;;4.00;4.00;;;;;19.57;56.42;100137.80;105826;1294;19258;-64
2022/12/10 03:56:34;;;;;;;;;4.00;4.00;;;;;19.56;56.34;100136.76;105841;1280;18531;-63
2022/12/10 03:59:02;;;;;;;;;4.00;4.00;;;;;19.57;56.53;100136.38;105874;1289;20057;-64
2022/12/10 04:01:29;;;;;;;;;4.50;3.00;;;;;19.56;56.50;100136.32;105888;1280;19259;-63
2022/12/10 04:03:56;;;;;;;;;5.00;4.00;;;;;19.56;56.30;100137.02;105925;1295;18638;-64
2022/12/10 04:06:24;;;;;;;;;5.00;4.00;;;;;19.56;56.45;100140.49;105854;1279;18947;-63
2022/12/10 04:08:51;;;;;;;;;5.00;5.00;;;;;19.56;56.51;100140.30;105852;1280;20829;-64
2022/12/10 04:11:18;;;;;;;;;4.50;4.00;;;;;19.56;56.57;100147.70;105856;1286;23206;-64
2022/12/10 04:16:31;;;;;;;;;4.00;4.00;;;;;19.56;56.32;100147.91;105760;1282;20865;-64
2022/12/10 04:18:58;;;;;;;;;4.00;4.00;;;;;19.56;56.29;100146.04;105851;1286;22839;-63
2022/12/10 04:26:56;;;;;;;;;5.00;4.00;;;;;19.56;56.48;100146.27;105793;1272;18415;-63
2022/12/10 04:29:23;;;;;;;;;4.00;4.00;;;;;19.56;56.42;100147.49;105756;1280;19926;-63
2022/12/10 04:31:50;;;;;;;;;6.00;6.00;;;;;19.55;56.39;100146.59;105830;1294;19241;-64
2022/12/10 04:34:18;;;;;;;;;7.00;5.00;;;;;19.55;56.42;100151.98;105707;1294;18360;-65
2022/12/10 04:36:45;;;;;;;;;5.00;5.00;;;;;19.54;56.50;100148.13;105858;1295;18532;-65
2022/12/10 04:39:13;;;;;;;;;5.00;5.00;;;;;19.54;56.40;100151.97;105862;1280;19258;-64
2022/12/10 04:41:41;;;;;;;;;2.00;2.00;;;;;19.54;56.35;100148.26;105864;1288;19691;-64
2022/12/10 04:44:08;;;;;;;;;4.00;4.00;;;;;19.55;56.41;100156.55;105766;1288;18467;-65
2022/12/10 04:46:36;;;;;;;;;6.00;5.00;;;;;19.55;56.29;100155.63;105739;1289;22634;-63
2022/12/10 04:49:03;;;;;;;;;5.00;4.50;;;;;19.55;56.16;100160.35;105844;1294;18542;-64
2022/12/10 04:51:30;;;;;;;;;5.00;5.00;;;;;19.54;56.33;100159.55;105766;1295;23560;-64
2022/12/10 04:53:58;;;;;;;;;4.00;4.00;;;;;19.54;56.25;100160.05;105784;1286;25066;-66
2022/12/10 04:56:25;;;;;;;;;4.00;4.00;;;;;19.54;56.30;100158.76;105800;1279;18366;-65
2022/12/10 04:58:52;;;;;;;;;4.00;4.00;;;;;19.54;56.43;100154.27;105759;1286;23390;-64
2022/12/10 05:01:20;;;;;;;;;4.00;4.00;;;;;19.53;56.24;100148.58;105771;1272;19279;-64
2022/12/10 05:03:47;;;;;;;;;2.00;2.00;;;;;19.53;56.36;100148.58;105798;1301;18446;-64
2022/12/10 05:06:14;;;;;;;;;5.00;4.00;;;;;19.53;56.30;100147.73;105752;1294;18522;-64
2022/12/10 05:08:42;;;;;;;;;5.00;4.00;;;;;19.54;56.31;100153.05;105747;1286;22237;-64
2022/12/10 05:11:09;;;;;;;;;4.00;4.00;;;;;19.54;56.13;100150.47;105750;1294;19599;-64
2022/12/10 05:13:36;;;;;;;;;2.00;2.00;;;;;19.53;56.31;100150.71;105707;1280;18879;-64
2022/12/10 05:16:04;;;;;;;;;4.00;4.00;;;;;19.53;56.37;100151.88;105756;1294;19301;-66
2022/12/10 05:18:31;;;;;;;;;4.00;4.00;;;;;19.53;56.10;100149.02;105822;1294;18423;-64
2022/12/10 05:20:58;;;;;;;;;4.50;4.50;;;;;19.53;56.34;100150.58;105802;1294;22684;-65
2022/12/10 05:23:29;;;;;;;;;4.00;4.00;;;;;19.52;56.09;100154.67;105753;1272;19301;-63
2022/12/10 05:25:56;;;;;;;;;5.00;5.00;;;;;19.52;56.34;100155.76;105772;1280;18469;-65
2022/12/10 05:28:24;;;;;;;;;7.00;4.00;;;;;19.52;56.21;100156.33;105733;1286;22740;-63
2022/12/10 05:30:51;;;;;;;;;4.00;4.00;;;;;19.51;56.05;100162.80;105788;1295;19109;-64
2022/12/10 05:33:18;;;;;;;;;4.00;4.00;;;;;19.52;56.18;100170.51;105775;1288;18713;-65
2022/12/10 05:35:45;;;;;;;;;4.00;3.00;;;;;19.52;56.06;100172.51;105798;1294;18730;-63
2022/12/10 05:38:13;;;;;;;;;4.00;4.00;;;;;19.52;56.20;100172.23;105756;1272;20989;-66
2022/12/10 05:40:40;;;;;;;;;4.00;4.00;;;;;19.52;56.25;100177.17;105699;1293;22162;-64
2022/12/10 05:43:08;;;;;;;;;4.00;4.00;;;;;19.51;56.07;100174.18;105739;1295;18627;-64
2022/12/10 05:45:35;;;;;;;;;5.00;4.00;;;;;19.53;56.06;100172.40;105762;1286;19278;-62
2022/12/10 05:48:03;;;;;;;;;4.00;4.00;;;;;19.52;56.37;100170.17;105781;1286;18510;-62
2022/12/10 05:50:30;;;;;;;;;2.00;2.00;;;;;19.53;56.09;100172.23;105737;1272;18524;-65
2022/12/10 05:52:57;;;;;;;;;2.00;2.00;;;;;19.51;56.07;100165.11;105734;1280;19279;-63
2022/12/10 05:55:26;;;;;;;;;4.00;4.00;;;;;19.52;55.92;100169.01;105739;1294;18338;-64
2022/12/10 05:57:53;;;;;;;;;2.00;2.00;;;;;19.52;56.16;100167.79;105807;1294;18413;-64
2022/12/10 06:00:23;;;;;;;;;4.00;2.00;;;;;19.51;55.99;100172.03;105786;1273;19283;-64
2022/12/10 06:02:50;;;;;;;;;4.00;3.00;;;;;19.51;56.04;100174.37;105749;1290;20142;-64
2022/12/10 06:05:18;;;;;;;;;2.00;2.00;;;;;19.51;56.03;100176.35;105758;1272;20174;-64
2022/12/10 06:07:45;;;;;;;;;5.00;4.00;;;;;19.52;56.14;100175.23;105708;1280;19286;-62
2022/12/10 06:10:12;;;;;;;;;4.50;4.50;;;;;19.52;56.15;100178.29;105733;1272;19602;-64
2022/12/10 06:12:40;;;;;;;;;2.00;2.00;;;;;19.51;56.19;100180.52;105793;1273;18492;-64
2022/12/10 06:15:07;;;;;;;;;4.00;4.00;;;;;19.51;56.20;100184.00;105764;1280;19288;-64
2022/12/10 06:17:36;;;;;;;;;5.00;4.00;;;;;19.50;55.87;100180.84;105775;1280;18567;-64
2022/12/10 06:20:03;;;;;;;;;2.00;2.00;;;;;19.51;56.14;100185.45;105756;1273;18501;-63
2022/12/10 06:22:30;;;;;;;;;4.50;3.00;;;;;19.50;55.90;100188.04;105761;1279;19283;-64
2022/12/10 06:24:58;;;;;;;;;2.00;2.00;;;;;19.50;55.81;100188.78;105756;1294;18376;-64
2022/12/10 06:27:25;;;;;;;;;4.00;4.00;;;;;19.48;55.96;100187.13;105811;1280;18586;-64
2022/12/10 06:29:52;;;;;;;;;4.00;2.00;;;;;19.49;56.06;100191.95;105756;1289;19333;-65
2022/12/10 06:32:20;;;;;;;;;2.00;2.00;;;;;19.49;56.13;100196.30;105741;1280;18582;-64
2022/12/10 06:34:47;;;;;;;;;2.00;2.00;;;;;19.49;56.07;100196.13;105767;1273;22195;-64
2022/12/10 06:37:14;;;;;;;;;2.00;2.00;;;;;19.49;55.91;100198.89;105759;1280;19260;-64
2022/12/10 06:39:42;;;;;;;;;4.00;2.00;;;;;19.48;55.95;100196.99;105786;1295;19845;-64
2022/12/10 06:42:09;;;;;;;;;4.00;4.00;;;;;19.48;56.01;100200.93;105766;1295;21495;-62
2022/12/10 06:44:37;;;;;;;;;4.00;2.00;;;;;19.49;55.92;100200.89;105753;1295;20711;-62
2022/12/10 06:47:04;;;;;;;;;4.00;2.00;;;;;19.48;56.03;100199.30;105761;1272;18476;-64
2022/12/10 06:49:32;;;;;;;;;2.00;2.00;;;;;19.48;55.94;100202.73;105725;1295;22202;-64
2022/12/10 06:51:59;;;;;;;;;4.00;4.00;;;;;19.48;56.03;100204.20;105806;1295;19423;-64
2022/12/10 06:54:27;;;;;;;;;4.00;2.00;;;;;19.46;56.05;100200.23;105785;1288;20194;-64
2022/12/10 06:56:54;;;;;;;;;4.00;2.00;;;;;19.47;55.93;100201.42;105770;1280;20053;-65
2022/12/10 06:59:21;;;;;;;;;2.00;2.00;;;;;19.48;56.01;100204.27;105773;1288;19284;-65
2022/12/10 07:01:49;;;;;;;;;4.00;4.00;;;;;19.48;56.00;100202.60;105764;1280;19980;-64
2022/12/10 07:04:16;;;;;;;;;2.00;2.00;;;;;19.48;55.76;100201.27;105810;1295;19924;-65
2022/12/10 07:06:43;;;;;;;;;4.00;4.00;;;;;19.48;55.75;100203.78;105847;1280;20544;-65
2022/12/10 07:09:11;;;;;;;;;4.00;4.00;;;;;19.48;55.73;100206.74;105745;1279;19655;-65
2022/12/10 07:11:38;;;;;;;;;2.00;2.00;;;;;19.47;55.81;100208.28;105785;1294;18466;-64
2022/12/10 07:14:05;;;;;;;;;2.00;2.00;;;;;19.48;55.89;100208.34;105703;1280;19274;-64
2022/12/10 07:16:33;;;;;;;;;2.00;2.00;;;;;19.50;55.94;100207.79;105824;1279;19588;-66
2022/12/10 07:19:00;;;;;;;;;4.00;4.00;;;;;19.53;55.69;100210.79;105698;1294;18744;-63
2022/12/10 07:21:28;;;;;;;;;3.00;2.00;;;;;19.54;55.69;100210.10;105708;1282;31242;-64
2022/12/10 07:23:57;;;;;;;;;2.00;2.00;;;;;19.57;55.98;100213.21;105686;1293;18653;-65
2022/12/10 07:26:24;;;;;;;;;3.00;2.00;;;;;19.59;55.92;100214.98;105728;1280;20057;-61
2022/12/10 07:28:52;;;;;;;;;2.00;2.00;;;;;19.58;56.03;100215.94;105741;1292;19828;-63
2022/12/10 07:31:19;;;;;;;;;2.00;2.00;;;;;19.57;56.11;100213.38;105787;1278;22906;-63
2022/12/10 07:33:46;;;;;;;;;4.00;4.00;;;;;19.56;56.18;100214.60;105714;1273;18509;-63
2022/12/10 07:36:14;;;;;;;;;2.00;2.00;;;;;19.55;56.23;100212.16;105776;1289;19265;-63
2022/12/10 07:38:41;;;;;;;;;2.00;2.00;;;;;19.53;56.50;100214.19;105734;1280;19619;-62
2022/12/10 07:41:09;;;;;;;;;2.00;2.00;;;;;19.53;56.44;100214.77;105754;1279;20545;-64
2022/12/10 07:43:36;;;;;;;;;2.00;2.00;;;;;19.52;56.47;100213.42;105927;1290;19835;-65
2022/12/10 07:46:03;;;;;;;;;2.00;2.00;;;;;19.52;56.12;100214.19;105817;1280;18553;-65
2022/12/10 07:48:31;;;;;;;;;2.00;2.00;;;;;19.53;56.23;100214.40;105830;1280;20053;-64
2022/12/10 07:50:58;;;;;;;;;4.00;2.00;;;;;19.53;56.41;100212.25;105826;1294;20776;-64
2022/12/10 07:53:25;;;;;;;;;1.00;1.00;;;;;19.51;56.36;100212.06;105772;1272;19434;-65
2022/12/10 07:55:53;;;;;;;;;2.00;2.00;;;;;19.51;56.41;100211.55;105846;1280;18578;-64
2022/12/10 07:58:20;;;;;;;;;2.00;2.00;;;;;19.51;56.47;100211.00;105759;1279;19111;-64
2022/12/10 08:00:47;;;;;;;;;2.00;2.00;;;;;19.50;56.43;100210.66;105811;1294;18546;-64
2022/12/10 08:03:15;;;;;;;;;2.00;2.00;;;;;19.50;56.51;100211.11;105775;1280;18517;-64
2022/12/10 08:05:42;;;;;;;;;4.00;2.00;;;;;19.48;56.53;100213.98;105775;1272;19425;-65
2022/12/10 08:08:09;;;;;;;;;2.00;2.00;;;;;19.49;56.50;100217.70;105762;1279;23134;-64
2022/12/10 08:10:37;;;;;;;;;4.00;4.00;;;;;19.48;56.54;100212.89;105767;1288;19978;-65
2022/12/10 08:13:04;;;;;;;;;2.00;2.00;;;;;19.48;56.45;100211.64;105905;1294;22883;-65
2022/12/10 08:15:31;;;;;;;;;2.00;2.00;;;;;19.52;56.18;100215.25;105757;1293;18336;-64
2022/12/10 08:17:59;;;;;;;;;4.00;2.00;;;;;19.54;56.15;100216.21;105763;1288;19996;-63
2022/12/10 08:20:26;;;;;;;;;2.00;2.00;;;;;19.56;56.32;100215.96;105713;1282;21987;-65
2022/12/10 08:22:53;;;;;;;;;4.00;2.00;;;;;19.60;56.57;100215.38;105845;1278;18269;-64
2022/12/10 08:25:20;;;;;;;;;2.67;2.67;;;;;19.60;56.74;100215.52;105754;1272;18922;-65
2022/12/10 08:27:48;;;;;;;;;2.00;2.00;;;;;19.62;56.55;100222.15;105825;1295;19272;-65
2022/12/10 08:30:15;;;;;;;;;2.00;2.00;;;;;19.63;56.76;100220.39;105681;1272;21893;-65
2022/12/10 08:32:42;;;;;;;;;4.50;3.00;;;;;19.64;56.72;100219.44;105764;1293;20153;-66
2022/12/10 08:35:10;;;;;;;;;;;;;;;19.65;57.03;100219.91;105805;1272;19591;-67
2022/12/10 08:37:37;;;;;;;;;2.00;2.00;;;;;19.66;57.00;100222.30;105722;1272;21128;-67
2022/12/10 08:40:04;;;;;;;;;4.00;4.00;;;;;19.68;56.92;100231.23;105878;1294;18591;-66
2022/12/10 08:42:32;;;;;;;;;4.00;4.00;;;;;19.69;57.25;100230.09;105845;1278;19552;-65
2022/12/10 08:44:59;;;;;;;;;2.00;2.00;;;;;19.70;57.06;100227.80;105811;1280;19575;-65
2022/12/10 08:47:26;;;;;;;;;4.00;4.00;;;;;19.70;57.31;100231.39;105764;1295;18513;-66
2022/12/10 08:49:54;;;;;;;;;4.00;4.00;;;;;19.70;57.26;100229.18;105573;1272;22132;-69
2022/12/10 08:52:21;;;;;;;;;3.00;2.00;;;;;19.73;57.20;100226.27;105768;1272;21862;-69
2022/12/10 08:54:48;;;;;;;;;4.00;4.00;;;;;19.75;57.46;100226.65;105794;1276;20024;-66
2022/12/10 08:57:16;;;;;;;;;2.00;2.00;;;;;19.76;57.68;100221.45;105716;1279;21716;-65
2022/12/10 08:59:44;;;;;;;;;5.00;4.00;;;;;19.77;57.86;100223.02;105789;1272;18364;-64
2022/12/10 09:02:11;;;;;;;;;5.00;5.00;;;;;19.77;57.90;100218.65;105746;1272;22467;-65
2022/12/10 09:04:39;;;;;;;;;4.00;4.00;;;;;19.78;58.04;100212.68;105749;1272;19295;-63
2022/12/10 09:07:07;;;;;;;;;13.00;8.00;;;;;19.77;57.82;100217.83;105793;1280;19613;-65
2022/12/10 09:09:34;;;;;;;;;7.00;5.00;;;;;19.78;57.90;100221.02;105800;1273;18550;-65
2022/12/10 09:12:01;;;;;;;;;9.50;9.00;;;;;19.79;57.78;100217.97;105800;1272;22245;-66
2022/12/10 09:14:28;;;;;;;;;8.00;8.00;;;;;19.79;57.75;100224.57;105837;1278;18450;-66
2022/12/10 09:16:56;;;;;;;;;13.00;11.00;;;;;19.80;57.91;100224.96;105805;1279;20538;-66
2022/12/10 09:19:23;;;;;;;;;11.00;10.00;;;;;19.81;58.33;100230.67;105774;1272;20963;-66
2022/12/10 09:21:50;;;;;;;;;14.50;14.50;;;;;19.81;58.58;100229.59;105834;1280;21165;-65
2022/12/10 09:24:18;;;;;;;;;15.00;12.00;;;;;19.81;58.82;100227.89;105688;1286;18596;-66
2022/12/10 09:26:46;;;;;;;;;12.00;11.00;;;;;19.81;58.69;100229.19;105799;1272;19246;-66
2022/12/10 09:29:14;;;;;;;;;15.00;14.00;;;;;19.80;58.56;100228.36;105786;1279;20025;-64
2022/12/10 09:31:41;;;;;;;;;20.00;15.00;;;;;19.79;58.81;100226.70;105774;1282;21517;-66
2022/12/10 09:34:10;;;;;;;;;17.00;15.00;;;;;19.78;59.08;100222.89;105746;1272;20737;-67
2022/12/10 09:36:37;;;;;;;;;15.00;13.50;;;;;19.77;59.32;100226.98;105720;1279;19299;-69
2022/12/10 09:39:04;;;;;;;;;17.00;14.00;;;;;19.77;59.18;100228.23;105722;1280;18614;-66
2022/12/10 09:41:31;;;;;;;;;11.00;8.00;;;;;19.77;59.31;100230.63;105755;1272;19270;-65
2022/12/10 09:43:59;;;;;;;;;14.00;11.00;;;;;19.76;59.33;100227.56;105651;1285;20040;-65
2022/12/10 09:46:26;;;;;;;;;14.00;11.00;;;;;19.82;59.50;100225.40;105768;1294;18897;-65
2022/12/10 09:48:53;;;;;;;;;13.50;12.50;;;;;19.87;59.42;100220.16;105680;1278;19288;-65
2022/12/10 09:51:21;;;;;;;;;15.50;13.50;;;;;19.85;59.29;100223.47;105831;1272;19988;-63
2022/12/10 09:53:48;;;;;;;;;12.00;12.00;;;;;19.83;59.25;100228.09;105811;1272;18578;-64
2022/12/10 09:56:15;;;;;;;;;11.00;10.00;;;;;19.82;59.27;100226.66;105647;1272;20797;-66
2022/12/10 09:58:43;;;;;;;;;13.50;12.00;;;;;19.81;59.04;100221.50;105782;1280;20981;-63
2022/12/10 10:01:10;;;;;;;;;77.50;57.50;;;;;19.84;58.83;100217.40;105818;1286;20134;-64
2022/12/10 10:03:37;;;;;;;;;58.00;45.00;;;;;19.83;58.81;100216.63;105826;1273;19271;-64
2022/12/10 10:06:05;;;;;;;;;102.00;73.50;;;;;19.81;58.62;100213.73;105786;1273;22701;-65
2022/12/10 10:08:32;;;;;;;;;117.00;97.00;;;;;19.81;58.50;100213.35;105810;1280;20145;-64
2022/12/10 10:10:59;;;;;;;;;111.00;82.00;;;;;19.83;58.68;100218.64;105908;1273;19631;-66
2022/12/10 10:13:27;;;;;;;;;;;;;;;19.86;58.23;100225.00;105818;1280;20320;-64
2022/12/10 10:15:54;;;;;;;;;118.00;98.50;;;;;19.87;58.30;100223.31;105974;1273;18466;-64
2022/12/10 10:18:21;;;;;;;;;127.50;95.00;;;;;19.89;58.44;100222.27;105724;1272;23306;-66
2022/12/10 10:20:49;;;;;;;;;114.00;82.00;;;;;19.88;58.60;100222.06;105778;1272;19263;-64
2022/12/10 10:23:16;;;;;;;;;106.00;76.00;;;;;19.90;58.54;100225.87;105794;1280;22120;-65
2022/12/10 10:25:43;;;;;;;;;;;;;;;19.91;58.44;100220.73;105810;1279;19153;-66
2022/12/10 10:28:12;;;;;;;;;103.50;72.50;;;;;19.90;58.27;100222.27;105808;1279;20311;-68
2022/12/10 10:30:39;;;;;;;;;88.00;64.00;;;;;19.90;58.40;100222.10;105873;1272;18651;-66
2022/12/10 10:33:07;;;;;;;;;94.00;69.00;;;;;19.89;58.24;100220.76;105781;1278;19436;-66
2022/12/10 10:35:34;;;;;;;;;95.50;69.50;;;;;19.89;58.42;100221.29;105839;1272;19949;-65
2022/12/10 10:38:01;;;;;;;;;92.00;66.00;;;;;19.89;58.19;100217.28;105814;1280;22723;-65
2022/12/10 10:40:29;;;;;;;;;85.50;62.50;;;;;19.90;58.32;100216.52;105791;1280;23214;-64
2022/12/10 10:42:56;;;;;;;;;;;;;;;19.91;58.35;100218.00;105871;1275;18488;-66
2022/12/10 10:45:24;;;;;;;;;82.50;60.50;;;;;19.91;58.41;100212.02;105862;1272;18548;-65
2022/12/10 10:47:51;;;;;;;;;81.50;61.50;;;;;19.93;58.19;100212.29;105799;1279;19261;-64
2022/12/10 10:50:19;;;;;;;;;74.00;58.00;;;;;19.93;58.45;100207.10;105810;1278;20016;-63
2022/12/10 10:52:46;;;;;;;;;80.00;62.50;;;;;19.94;58.51;100210.38;105838;1280;21905;-65
2022/12/10 10:55:14;;;;;;;;;66.00;55.00;;;;;19.94;58.40;100206.98;105842;1280;19261;-66
2022/12/10 10:57:42;;;;;;;;;70.00;57.00;;;;;19.93;58.52;100205.63;105862;1272;21525;-65
2022/12/10 11:00:09;;;;;;;;;67.00;51.00;;;;;19.92;58.30;100202.85;105879;1280;20267;-64
2022/12/10 11:02:36;;;;;;;;;68.00;52.00;;;;;19.92;58.38;100198.70;105871;1288;20787;-66
2022/12/10 11:05:04;;;;;;;;;61.50;46.00;;;;;19.89;58.57;100196.89;105769;1294;18705;-66
2022/12/10 11:07:31;;;;;;;;;56.00;42.00;;;;;19.83;58.60;100190.17;105800;1272;18607;-66
2022/12/10 11:09:59;;;;;;;;;38.00;33.00;;;;;19.76;58.35;100188.06;105892;1279;21172;-67
2022/12/10 11:12:26;;;;;;;;;47.00;33.00;;;;;19.75;58.54;100187.88;105869;1280;18485;-65
2022/12/10 11:14:54;;;;;;;;;34.00;30.00;;;;;19.74;58.27;100190.13;105813;1288;22601;-65
2022/12/10 11:17:21;;;;;;;;;35.00;26.50;;;;;19.72;58.45;100188.70;105830;1272;19263;-66
2022/12/10 11:19:49;;;;;;;;;26.00;24.00;;;;;19.70;58.42;100186.00;105889;1280;18781;-66
2022/12/10 11:22:17;;;;;;;;;30.00;26.00;;;;;19.70;58.45;100182.24;105849;1286;20130;-64